createdAt,value
2023-03-05T00:01:07.801Z,73.36
2023-03-05T00:02:10.773Z,73.57
2023-03-05T00:03:13.729Z,73.54
2023-03-05T00:04:16.660Z,73.48
2023-03-05T00:05:19.688Z,73.62
2023-03-05T00:06:25.323Z,73.74
2023-03-05T00:07:28.171Z,73.62
2023-03-05T00:08:31.960Z,73.50
2023-03-05T00:09:35.936Z,73.82
2023-03-05T00:10:39.679Z,73.67
2023-03-05T00:11:42.685Z,73.55
2023-03-05T00:12:45.619Z,73.71
2023-03-05T00:13:51.633Z,73.78
2023-03-05T00:14:54.675Z,74.02
2023-03-05T00:15:57.818Z,74.04
2023-03-05T00:17:01.036Z,73.84
2023-03-05T00:18:04.109Z,73.64
2023-03-05T00:19:07.351Z,73.70
2023-03-05T00:20:11.255Z,73.87
2023-03-05T00:22:24.944Z,73.85
2023-03-05T00:23:28.285Z,74.10
2023-03-05T00:24:31.228Z,74.26
2023-03-05T00:25:37.113Z,74.46
2023-03-05T00:26:40.570Z,74.29
2023-03-05T00:27:43.513Z,74.18
2023-03-05T00:28:50.576Z,74.06
2023-03-05T00:29:53.501Z,73.94
2023-03-05T00:31:01.665Z,73.97
2023-03-05T00:32:04.753Z,74.01
2023-03-05T00:33:08.300Z,73.95
2023-03-05T00:34:14.262Z,73.99
2023-03-05T00:35:17.169Z,73.72
2023-03-05T00:36:20.676Z,73.51
2023-03-05T00:37:24.104Z,73.28
2023-03-05T00:38:27.039Z,73.41
2023-03-05T00:39:30.009Z,73.49
2023-03-05T00:40:38.281Z,73.60
2023-03-05T00:41:41.805Z,73.73
2023-03-05T00:42:44.755Z,73.58
2023-03-05T00:43:48.476Z,73.17
2023-03-05T00:44:51.356Z,73.01
2023-03-05T00:45:54.738Z,72.86
2023-03-05T00:46:57.729Z,73.15
2023-03-05T00:48:01.136Z,73.64
2023-03-05T00:49:04.866Z,73.76
2023-03-05T00:50:08.474Z,74.00
2023-03-05T00:51:11.411Z,74.11
2023-03-05T00:52:14.415Z,73.85
2023-03-05T00:53:17.333Z,73.89
2023-03-05T00:54:20.956Z,73.80
2023-03-05T00:55:23.967Z,73.97
2023-03-05T00:56:27.998Z,74.05
2023-03-05T00:57:31.309Z,74.30
2023-03-05T00:58:34.471Z,74.21
2023-03-05T00:59:37.693Z,73.99
2023-03-05T01:00:41.162Z,73.95
2023-03-05T01:01:44.108Z,74.21
2023-03-05T01:02:47.775Z,74.44
2023-03-05T01:03:51.720Z,74.57
2023-03-05T01:04:54.881Z,74.54
2023-03-05T01:05:59.245Z,74.61
2023-03-05T01:07:02.638Z,74.41
2023-03-05T01:08:06.119Z,74.19
2023-03-05T01:09:09.316Z,74.55
2023-03-05T01:10:13.052Z,74.32
2023-03-05T01:11:15.921Z,74.38
2023-03-05T01:12:18.884Z,74.59
2023-03-05T01:13:22.059Z,74.77
2023-03-05T01:14:25.014Z,74.80
2023-03-05T01:15:28.227Z,74.74
2023-03-05T01:16:31.234Z,74.79
2023-03-05T01:17:34.886Z,75.17
2023-03-05T01:18:39.091Z,74.82
2023-03-05T01:19:41.953Z,74.59
2023-03-05T01:20:45.134Z,74.45
2023-03-05T01:21:48.046Z,74.60
2023-03-05T01:22:51.118Z,74.81
2023-03-05T01:23:54.127Z,74.79
2023-03-05T01:24:57.166Z,74.80
2023-03-05T01:26:00.754Z,74.80
2023-03-05T01:27:04.130Z,74.74
2023-03-05T01:28:07.614Z,74.85
2023-03-05T01:29:10.812Z,74.74
2023-03-05T01:30:15.134Z,74.30
2023-03-05T01:31:18.195Z,74.09
2023-03-05T01:32:21.505Z,73.95
2023-03-05T01:33:24.719Z,74.29
2023-03-05T01:34:27.680Z,73.80
2023-03-05T01:35:30.912Z,73.61
2023-03-05T01:36:33.920Z,73.65
2023-03-05T01:37:37.020Z,73.58
2023-03-05T01:38:40.024Z,73.73
2023-03-05T01:39:43.027Z,73.97
2023-03-05T01:40:46.533Z,73.95
2023-03-05T01:41:49.834Z,73.97
2023-03-05T01:43:26.937Z,73.80
2023-03-05T01:44:30.948Z,73.56
2023-03-05T01:45:34.101Z,73.35
2023-03-05T01:46:38.989Z,73.26
2023-03-05T01:47:42.337Z,73.48
2023-03-05T01:48:50.140Z,73.36
2023-03-05T01:49:54.509Z,73.20
2023-03-05T01:50:57.665Z,73.03
2023-03-05T01:52:18.302Z,73.18
2023-03-05T01:53:21.401Z,73.37
2023-03-05T01:54:29.985Z,73.23
2023-03-05T01:55:37.844Z,73.15
2023-03-05T01:56:41.945Z,73.21
2023-03-05T01:57:48.524Z,73.14
2023-03-05T01:58:53.724Z,73.42
2023-03-05T02:00:02.558Z,73.49
2023-03-05T02:01:06.175Z,73.82
2023-03-05T02:02:09.567Z,73.89
2023-03-05T02:03:18.015Z,73.96
2023-03-05T02:04:24.148Z,73.86
2023-03-05T02:05:33.035Z,73.65
2023-03-05T02:06:36.051Z,73.79
2023-03-05T02:07:40.517Z,73.63
2023-03-05T02:08:43.583Z,73.86
2023-03-05T02:09:47.059Z,73.49
2023-03-05T02:10:54.057Z,73.72
2023-03-05T02:11:57.825Z,73.94
2023-03-05T02:13:07.023Z,74.19
2023-03-05T02:14:10.556Z,74.22
2023-03-05T02:15:13.631Z,74.16
2023-03-05T02:16:16.751Z,74.08
2023-03-05T02:17:19.875Z,73.92
2023-03-05T02:18:23.127Z,74.12
2023-03-05T02:19:26.426Z,74.25
2023-03-05T02:20:42.615Z,74.06
2023-03-05T02:21:48.173Z,74.12
2023-03-05T02:22:51.557Z,74.17
2023-03-05T02:23:54.577Z,73.91
2023-03-05T02:24:57.590Z,73.85
2023-03-05T02:26:00.526Z,73.93
2023-03-05T02:27:05.418Z,74.31
2023-03-05T02:28:14.161Z,73.84
2023-03-05T02:29:20.409Z,73.81
2023-03-05T02:30:23.549Z,73.87
2023-03-05T02:31:27.372Z,73.55
2023-03-05T02:32:30.261Z,73.82
2023-03-05T02:33:33.146Z,73.91
2023-03-05T02:34:36.852Z,73.84
2023-03-05T02:35:39.841Z,73.85
2023-03-05T02:36:42.737Z,73.75
2023-03-05T02:37:46.206Z,73.92
2023-03-05T02:38:49.409Z,74.22
2023-03-05T02:39:52.392Z,74.17
2023-03-05T02:40:55.497Z,74.29
2023-03-05T02:41:58.502Z,74.16
2023-03-05T02:43:01.493Z,74.48
2023-03-05T02:44:05.015Z,74.50
2023-03-05T02:45:08.632Z,74.34
2023-03-05T02:46:11.691Z,74.64
2023-03-05T02:47:14.674Z,74.45
2023-03-05T02:48:17.752Z,74.37
2023-03-05T02:49:20.533Z,74.25
2023-03-05T02:50:23.996Z,74.34
2023-03-05T02:51:26.982Z,74.47
2023-03-05T02:52:30.365Z,74.16
2023-03-05T02:53:33.461Z,74.31
2023-03-05T02:54:36.335Z,74.38
2023-03-05T02:55:39.312Z,74.42
2023-03-05T02:56:43.754Z,74.57
2023-03-05T02:57:46.603Z,74.65
2023-03-05T02:58:49.586Z,74.51
2023-03-05T02:59:52.605Z,74.62
2023-03-05T03:00:55.581Z,74.37
2023-03-05T03:01:58.413Z,74.33
2023-03-05T03:03:01.314Z,74.42
2023-03-05T03:04:04.332Z,74.52
2023-03-05T03:05:08.113Z,74.65
2023-03-05T03:06:11.178Z,74.77
2023-03-05T03:07:15.233Z,74.75
2023-03-05T03:08:18.333Z,74.54
2023-03-05T03:09:21.310Z,74.61
2023-03-05T03:10:24.465Z,74.90
2023-03-05T03:11:27.623Z,74.90
2023-03-05T03:12:30.719Z,74.82
2023-03-05T03:13:33.718Z,74.62
2023-03-05T03:14:39.705Z,74.56
2023-03-05T03:15:42.557Z,74.91
2023-03-05T03:16:45.359Z,75.15
2023-03-05T03:17:48.745Z,74.95
2023-03-05T03:18:51.628Z,75.03
2023-03-05T03:19:54.742Z,75.14
2023-03-05T03:20:57.656Z,74.92
2023-03-05T03:22:00.709Z,74.86
2023-03-05T03:23:03.723Z,74.86
2023-03-05T03:24:06.907Z,75.10
2023-03-05T03:25:11.290Z,75.40
2023-03-05T03:26:14.383Z,75.62
2023-03-05T03:27:17.374Z,75.11
2023-03-05T03:28:20.646Z,75.27
2023-03-05T03:29:23.800Z,75.23
2023-03-05T03:30:27.264Z,75.51
2023-03-05T03:31:30.216Z,75.75
2023-03-05T03:32:34.360Z,75.45
2023-03-05T03:33:37.279Z,75.60
2023-03-05T03:34:40.330Z,75.67
2023-03-05T03:35:43.202Z,75.58
2023-03-05T03:36:47.486Z,75.60
2023-03-05T03:37:50.456Z,75.31
2023-03-05T03:38:53.431Z,75.26
2023-03-05T03:39:56.445Z,75.44
2023-03-05T03:40:59.232Z,75.74
2023-03-05T03:42:02.129Z,75.64
2023-03-05T03:43:05.229Z,75.62
2023-03-05T03:44:09.137Z,75.51
2023-03-05T03:45:12.785Z,75.50
2023-03-05T03:46:15.746Z,75.58
2023-03-05T03:47:19.380Z,75.65
2023-03-05T03:48:22.281Z,75.80
2023-03-05T03:49:26.901Z,75.81
2023-03-05T03:50:29.959Z,75.80
2023-03-05T03:51:33.068Z,76.03
2023-03-05T03:52:36.090Z,75.84
2023-03-05T03:53:39.170Z,75.86
2023-03-05T03:54:42.116Z,75.56
2023-03-05T03:55:46.723Z,75.84
2023-03-05T03:56:50.310Z,75.96
2023-03-05T03:57:54.039Z,75.82
2023-03-05T03:58:57.120Z,75.97
2023-03-05T04:00:00.413Z,75.80
2023-03-05T04:01:03.869Z,75.73
2023-03-05T04:02:07.709Z,75.92
2023-03-05T04:03:10.841Z,75.93
2023-03-05T04:04:14.601Z,76.21
2023-03-05T04:05:17.777Z,76.29
2023-03-05T04:06:20.675Z,76.21
2023-03-05T04:07:24.246Z,75.71
2023-03-05T04:08:27.232Z,75.68
2023-03-05T04:09:30.105Z,75.89
2023-03-05T04:10:33.119Z,76.02
2023-03-05T04:11:37.507Z,76.21
2023-03-05T04:12:43.261Z,76.36
2023-03-05T04:13:47.247Z,76.40
2023-03-05T04:14:50.538Z,76.49
2023-03-05T04:15:54.259Z,76.61
2023-03-05T04:16:57.210Z,76.55
2023-03-05T04:18:00.897Z,76.47
2023-03-05T04:19:03.849Z,76.72
2023-03-05T04:20:10.521Z,76.76
2023-03-05T04:21:13.933Z,76.41
2023-03-05T04:22:18.045Z,76.34
2023-03-05T04:23:20.910Z,76.41
2023-03-05T04:24:23.725Z,76.48
2023-03-05T04:25:26.686Z,76.60
2023-03-05T04:26:29.434Z,76.54
2023-03-05T04:27:34.486Z,76.39
2023-03-05T04:28:37.575Z,76.31
2023-03-05T04:29:40.492Z,76.10
2023-03-05T04:30:43.899Z,76.04
2023-03-05T04:31:47.214Z,76.24
2023-03-05T04:32:50.313Z,76.32
2023-03-05T04:33:53.281Z,76.21
2023-03-05T04:34:57.566Z,75.41
2023-03-05T04:36:00.362Z,75.64
2023-03-05T04:37:03.535Z,75.56
2023-03-05T04:38:06.581Z,75.59
2023-03-05T04:39:09.568Z,75.90
2023-03-05T04:40:13.027Z,75.49
2023-03-05T04:41:15.932Z,75.55
2023-03-05T04:42:20.348Z,75.64
2023-03-05T04:43:23.191Z,75.72
2023-03-05T04:44:26.313Z,75.56
2023-03-05T04:45:29.256Z,75.35
2023-03-05T04:46:32.730Z,75.44
2023-03-05T04:47:35.737Z,75.44
2023-03-05T04:48:38.610Z,75.33
2023-03-05T04:49:41.609Z,75.52
2023-03-05T04:50:44.968Z,75.56
2023-03-05T04:51:48.119Z,75.40
2023-03-05T04:52:51.268Z,75.58
2023-03-05T04:53:54.184Z,75.91
2023-03-05T04:54:57.291Z,76.15
2023-03-05T04:56:01.805Z,76.05
2023-03-05T04:57:04.945Z,75.78
2023-03-05T04:58:07.849Z,75.85
2023-03-05T04:59:11.418Z,75.94
2023-03-05T05:00:17.108Z,75.87
2023-03-05T05:01:20.204Z,75.62
2023-03-05T05:02:23.194Z,75.58
2023-03-05T05:03:26.170Z,75.60
2023-03-05T05:04:30.078Z,75.92
2023-03-05T05:05:33.071Z,75.88
2023-03-05T05:06:36.577Z,76.03
2023-03-05T05:07:39.787Z,76.03
2023-03-05T05:08:43.671Z,76.02
2023-03-05T05:09:47.228Z,76.01
2023-03-05T05:11:01.146Z,75.97
2023-03-05T05:12:04.278Z,76.06
2023-03-05T05:13:07.378Z,76.00
2023-03-05T05:14:10.199Z,75.92
2023-03-05T05:15:13.628Z,75.94
2023-03-05T05:16:17.026Z,75.97
2023-03-05T05:17:20.017Z,75.96
2023-03-05T05:18:23.134Z,74.93
2023-03-05T05:19:26.350Z,75.15
2023-03-05T05:20:29.686Z,75.22
2023-03-05T05:21:33.062Z,75.13
2023-03-05T05:22:36.099Z,74.63
2023-03-05T05:23:39.784Z,74.56
2023-03-05T05:24:42.993Z,74.57
2023-03-05T05:25:46.064Z,74.62
2023-03-05T05:26:49.197Z,74.68
2023-03-05T05:27:52.815Z,74.64
2023-03-05T05:28:55.866Z,74.39
2023-03-05T05:29:58.879Z,74.51
2023-03-05T05:31:07.506Z,74.60
2023-03-05T05:32:10.576Z,74.66
2023-03-05T05:33:13.503Z,74.74
2023-03-05T05:34:16.755Z,74.39
2023-03-05T05:35:19.607Z,74.31
2023-03-05T05:36:22.963Z,74.20
2023-03-05T05:37:27.161Z,74.10
2023-03-05T05:38:30.022Z,74.37
2023-03-05T05:39:33.091Z,74.57
2023-03-05T05:40:36.297Z,74.63
2023-03-05T05:41:39.353Z,74.39
2023-03-05T05:42:42.388Z,74.52
2023-03-05T05:43:45.626Z,74.61
2023-03-05T05:44:48.670Z,74.26
2023-03-05T05:45:51.832Z,74.16
2023-03-05T05:46:55.468Z,74.29
2023-03-05T05:47:58.451Z,74.33
2023-03-05T05:49:01.433Z,73.89
2023-03-05T05:50:05.654Z,73.26
2023-03-05T05:51:11.918Z,73.58
2023-03-05T05:52:14.864Z,73.24
2023-03-05T05:53:18.848Z,73.15
2023-03-05T05:54:21.870Z,72.93
2023-03-05T05:55:24.770Z,73.11
2023-03-05T05:56:27.892Z,72.92
2023-03-05T05:57:30.784Z,73.08
2023-03-05T05:58:34.413Z,73.40
2023-03-05T05:59:38.665Z,73.65
2023-03-05T06:00:41.884Z,73.49
2023-03-05T06:01:45.064Z,72.94
2023-03-05T06:02:48.184Z,73.09
2023-03-05T06:03:51.461Z,73.09
2023-03-05T06:04:55.410Z,73.25
2023-03-05T06:05:59.271Z,73.31
2023-03-05T06:07:03.424Z,73.30
2023-03-05T06:08:06.459Z,73.09
2023-03-05T06:09:09.729Z,73.32
2023-03-05T06:10:13.292Z,73.56
2023-03-05T06:11:19.245Z,73.58
2023-03-05T06:12:22.486Z,73.38
2023-03-05T06:13:25.555Z,73.64
2023-03-05T06:14:28.382Z,73.79
2023-03-05T06:15:31.914Z,73.68
2023-03-05T06:16:35.373Z,73.33
2023-03-05T06:17:38.595Z,73.28
2023-03-05T06:18:42.560Z,73.41
2023-03-05T06:19:45.886Z,73.71
2023-03-05T06:21:01.396Z,73.62
2023-03-05T06:22:04.424Z,73.40
2023-03-05T06:23:07.494Z,73.30
2023-03-05T06:24:10.478Z,73.46
2023-03-05T06:25:13.523Z,73.66
2023-03-05T06:26:19.544Z,73.80
2023-03-05T06:27:22.778Z,73.51
2023-03-05T06:28:25.939Z,73.24
2023-03-05T06:29:28.785Z,73.32
2023-03-05T06:30:31.851Z,73.32
2023-03-05T06:31:37.259Z,73.45
2023-03-05T06:32:40.465Z,73.37
2023-03-05T06:33:44.405Z,73.06
2023-03-05T06:34:47.504Z,73.00
2023-03-05T06:35:50.522Z,73.29
2023-03-05T06:36:53.770Z,73.24
2023-03-05T06:37:56.675Z,73.30
2023-03-05T06:38:59.822Z,73.12
2023-03-05T06:40:03.456Z,72.92
2023-03-05T06:41:10.807Z,73.19
2023-03-05T06:42:13.774Z,73.43
2023-03-05T06:43:16.825Z,73.21
2023-03-05T06:44:19.693Z,73.26
2023-03-05T06:45:22.873Z,73.13
2023-03-05T06:46:29.268Z,73.15
2023-03-05T06:47:32.813Z,73.56
2023-03-05T06:48:35.849Z,73.43
2023-03-05T06:49:39.599Z,73.03
2023-03-05T06:50:43.087Z,72.99
2023-03-05T06:51:46.114Z,73.17
2023-03-05T06:52:51.912Z,73.24
2023-03-05T06:53:55.896Z,73.33
2023-03-05T06:54:58.904Z,73.38
2023-03-05T06:56:02.307Z,73.57
2023-03-05T06:57:05.430Z,73.65
2023-03-05T06:58:08.590Z,73.56
2023-03-05T06:59:12.997Z,73.31
2023-03-05T07:00:16.385Z,73.32
2023-03-05T07:01:21.294Z,73.45
2023-03-05T07:02:24.831Z,73.54
2023-03-05T07:03:28.472Z,73.17
2023-03-05T07:04:31.980Z,73.49
2023-03-05T07:05:39.719Z,73.20
2023-03-05T07:06:45.162Z,72.94
2023-03-05T07:07:48.238Z,72.84
2023-03-05T07:08:51.383Z,73.03
2023-03-05T07:09:54.601Z,72.98
2023-03-05T07:10:57.874Z,72.46
2023-03-05T07:12:00.849Z,72.19
2023-03-05T07:13:04.076Z,72.60
2023-03-05T07:14:07.902Z,72.58
2023-03-05T07:15:11.277Z,72.68
2023-03-05T07:16:23.070Z,71.96
2023-03-05T07:17:26.583Z,72.30
2023-03-05T07:18:29.490Z,72.72
2023-03-05T07:19:32.473Z,72.83
2023-03-05T07:20:37.066Z,72.87
2023-03-05T07:21:40.472Z,72.65
2023-03-05T07:22:43.685Z,72.23
2023-03-05T07:23:47.103Z,72.29
2023-03-05T07:24:50.530Z,71.59
2023-03-05T07:25:53.598Z,71.64
2023-03-05T07:26:57.784Z,72.10
2023-03-05T07:28:00.776Z,71.94
2023-03-05T07:29:04.001Z,72.00
2023-03-05T07:30:07.805Z,71.94
2023-03-05T07:31:20.397Z,71.90
2023-03-05T07:32:23.439Z,72.34
2023-03-05T07:33:27.039Z,72.24
2023-03-05T07:34:30.076Z,72.33
2023-03-05T07:35:33.041Z,72.17
2023-03-05T07:36:36.246Z,72.45
2023-03-05T07:37:39.306Z,72.16
2023-03-05T07:38:42.447Z,71.57
2023-03-05T07:39:47.211Z,71.26
2023-03-05T07:40:51.342Z,71.40
2023-03-05T07:41:54.330Z,71.72
2023-03-05T07:42:57.660Z,71.72
2023-03-05T07:44:00.811Z,71.12
2023-03-05T07:45:03.889Z,71.03
2023-03-05T07:46:14.595Z,71.49
2023-03-05T07:47:17.593Z,71.79
2023-03-05T07:48:23.616Z,71.29
2023-03-05T07:49:26.715Z,71.22
2023-03-05T07:50:29.797Z,71.42
2023-03-05T07:51:32.897Z,71.70
2023-03-05T07:52:36.006Z,72.24
2023-03-05T07:53:39.316Z,71.69
2023-03-05T07:54:42.393Z,71.65
2023-03-05T07:55:47.153Z,71.59
2023-03-05T07:56:50.253Z,71.47
2023-03-05T07:57:53.475Z,71.36
2023-03-05T07:58:56.457Z,71.21
2023-03-05T07:59:59.729Z,70.73
2023-03-05T08:01:03.639Z,70.61
2023-03-05T08:02:08.079Z,70.58
2023-03-05T08:03:11.157Z,70.40
2023-03-05T08:04:14.251Z,70.63
2023-03-05T08:05:17.553Z,71.08
2023-03-05T08:06:20.691Z,71.43
2023-03-05T08:07:23.904Z,71.54
2023-03-05T08:08:27.153Z,71.27
2023-03-05T08:09:30.311Z,70.86
2023-03-05T08:10:34.445Z,70.89
2023-03-05T08:11:37.506Z,70.78
2023-03-05T08:12:40.597Z,70.95
2023-03-05T08:13:44.868Z,70.92
2023-03-05T08:14:48.251Z,70.50
2023-03-05T08:15:51.354Z,70.41
2023-03-05T08:16:54.528Z,70.83
2023-03-05T08:17:57.902Z,71.17
2023-03-05T08:19:01.375Z,71.55
2023-03-05T08:20:11.080Z,71.66
2023-03-05T08:21:21.828Z,71.66
2023-03-05T08:22:24.794Z,71.48
2023-03-05T08:23:28.161Z,71.27
2023-03-05T08:24:31.148Z,71.09
2023-03-05T08:25:34.394Z,71.15
2023-03-05T08:26:39.098Z,69.94
2023-03-05T08:27:43.950Z,70.04
2023-03-05T08:28:54.072Z,70.24
2023-03-05T08:29:56.914Z,70.68
2023-03-05T08:30:59.930Z,70.27
2023-03-05T08:32:02.901Z,69.88
2023-03-05T08:33:05.925Z,69.70
2023-03-05T08:34:08.832Z,69.66
2023-03-05T08:35:12.422Z,69.25
2023-03-05T08:36:15.895Z,68.79
2023-03-05T08:37:19.069Z,69.30
2023-03-05T08:38:22.234Z,69.42
2023-03-05T08:39:25.303Z,69.43
2023-03-05T08:40:28.383Z,68.97
2023-03-05T08:41:31.256Z,69.27
2023-03-05T08:42:34.564Z,68.98
2023-03-05T08:43:37.456Z,68.60
2023-03-05T08:44:40.364Z,68.75
2023-03-05T08:45:43.241Z,69.14
2023-03-05T08:46:46.396Z,69.68
2023-03-05T08:47:49.621Z,69.47
2023-03-05T08:48:52.777Z,69.59
2023-03-05T08:49:57.540Z,69.63
2023-03-05T08:51:12.764Z,70.22
2023-03-05T08:52:16.096Z,70.54
2023-03-05T08:53:19.417Z,70.49
2023-03-05T08:54:23.137Z,71.20
2023-03-05T08:55:26.170Z,71.61
2023-03-05T08:56:31.719Z,71.65
2023-03-05T08:57:35.036Z,71.53
2023-03-05T08:58:38.181Z,71.05
2023-03-05T08:59:41.033Z,70.84
2023-03-05T09:00:44.092Z,70.62
2023-03-05T09:01:47.135Z,70.41
2023-03-05T09:02:51.438Z,70.45
2023-03-05T09:03:54.513Z,69.87
2023-03-05T09:04:57.362Z,69.22
2023-03-05T09:06:02.245Z,69.15
2023-03-05T09:07:05.926Z,69.02
2023-03-05T09:08:09.201Z,69.11
2023-03-05T09:09:13.917Z,68.71
2023-03-05T09:10:18.575Z,68.62
2023-03-05T09:11:22.218Z,68.37
2023-03-05T09:12:25.846Z,68.58
2023-03-05T09:13:29.200Z,68.70
2023-03-05T09:14:32.045Z,68.42
2023-03-05T09:15:34.875Z,68.60
2023-03-05T09:16:40.681Z,68.33
2023-03-05T09:17:43.719Z,68.03
2023-03-05T09:18:46.768Z,68.36
2023-03-05T09:19:50.249Z,68.40
2023-03-05T09:20:54.016Z,68.41
2023-03-05T09:21:57.268Z,68.66
2023-03-05T09:23:00.259Z,68.84
2023-03-05T09:24:03.752Z,68.73
2023-03-05T09:25:07.964Z,68.73
2023-03-05T09:26:13.452Z,69.03
2023-03-05T09:27:16.252Z,69.19
2023-03-05T09:28:19.194Z,69.33
2023-03-05T09:29:22.091Z,69.49
2023-03-05T09:30:25.100Z,69.45
2023-03-05T09:31:28.011Z,69.92
2023-03-05T09:32:31.142Z,69.40
2023-03-05T09:33:35.576Z,69.76
2023-03-05T09:34:38.387Z,69.87
2023-03-05T09:35:41.465Z,69.82
2023-03-05T09:36:44.468Z,70.23
2023-03-05T09:37:47.365Z,70.78
2023-03-05T09:38:50.783Z,70.75
2023-03-05T09:39:53.917Z,70.35
2023-03-05T09:41:08.059Z,69.78
2023-03-05T09:43:02.819Z,70.01
2023-03-05T09:44:35.054Z,68.83
2023-03-05T09:45:40.458Z,69.17
2023-03-05T09:47:07.637Z,68.36
2023-03-05T09:48:48.035Z,68.67
2023-03-05T09:50:12.923Z,68.23
2023-03-05T09:51:31.691Z,67.55
2023-03-05T09:52:42.266Z,67.77
2023-03-05T09:53:48.840Z,67.99
2023-03-05T09:54:57.635Z,68.64
2023-03-05T09:56:05.640Z,68.12
2023-03-05T09:57:18.722Z,67.18
2023-03-05T09:58:34.254Z,67.28
2023-03-05T10:00:13.088Z,67.58
2023-03-05T10:01:27.390Z,67.62
2023-03-05T10:02:35.512Z,68.31
2023-03-05T10:04:03.218Z,67.62
2023-03-05T10:05:26.595Z,67.28
2023-03-05T10:06:46.646Z,66.55
2023-03-05T10:07:59.891Z,66.09
2023-03-05T10:09:11.820Z,66.02
2023-03-05T10:10:25.057Z,66.27
2023-03-05T10:11:47.513Z,65.77
2023-03-05T10:12:54.957Z,64.99
2023-03-05T10:13:58.057Z,65.51
2023-03-05T10:15:03.483Z,65.49
2023-03-05T10:16:33.231Z,65.52
2023-03-05T10:17:42.618Z,65.47
2023-03-05T10:19:00.611Z,65.73
2023-03-05T10:20:25.909Z,65.59
2023-03-05T10:21:34.614Z,65.41
2023-03-05T10:23:13.660Z,64.82
2023-03-05T10:24:19.100Z,64.77
2023-03-05T10:25:49.576Z,64.07
2023-03-05T10:27:08.542Z,63.97
2023-03-05T10:28:44.011Z,64.51
2023-03-05T10:29:55.761Z,64.10
2023-03-05T10:31:07.393Z,63.02
2023-03-05T10:32:22.264Z,63.04
2023-03-05T10:33:46.200Z,63.44
2023-03-05T10:35:07.257Z,63.49
2023-03-05T10:36:32.048Z,63.22
2023-03-05T10:38:02.601Z,62.74
2023-03-05T10:39:32.809Z,63.24
2023-03-05T10:40:48.407Z,63.57
2023-03-05T10:42:13.044Z,63.92
2023-03-05T10:43:35.474Z,64.58
2023-03-05T10:45:23.148Z,64.38
2023-03-05T10:46:33.181Z,63.32
2023-03-05T10:47:48.124Z,63.55
2023-03-05T10:48:56.251Z,62.43
2023-03-05T10:50:00.141Z,61.62
2023-03-05T10:51:24.400Z,61.91
2023-03-05T10:52:41.634Z,61.74
2023-03-05T10:53:58.896Z,62.21
2023-03-05T10:55:02.115Z,62.68
2023-03-05T10:56:06.839Z,62.03
2023-03-05T10:57:15.898Z,61.76
2023-03-05T10:58:19.126Z,61.99
2023-03-05T10:59:22.743Z,62.33
2023-03-05T11:00:32.508Z,62.27
2023-03-05T11:01:37.845Z,62.67
2023-03-05T11:03:00.510Z,62.24
2023-03-05T11:04:06.249Z,61.14
2023-03-05T11:05:32.061Z,60.79
2023-03-05T11:06:42.725Z,61.01
2023-03-05T11:07:46.167Z,61.31
2023-03-05T11:08:49.328Z,61.13
2023-03-05T11:10:03.810Z,61.48
2023-03-05T11:11:20.486Z,60.94
2023-03-05T11:12:28.991Z,60.80
2023-03-05T11:13:34.093Z,61.16
2023-03-05T11:15:02.318Z,61.23
2023-03-05T11:16:16.558Z,61.48
2023-03-05T11:17:23.971Z,61.56
2023-03-05T11:18:27.162Z,61.39
2023-03-05T11:19:35.188Z,61.88
2023-03-05T11:20:38.226Z,61.37
2023-03-05T11:21:42.446Z,61.90
2023-03-05T11:23:04.670Z,61.59
2023-03-05T11:24:19.284Z,60.27
2023-03-05T11:25:22.919Z,61.09
2023-03-05T11:26:25.689Z,60.20
2023-03-05T11:27:44.830Z,59.75
2023-03-05T11:28:53.984Z,59.35
2023-03-05T11:29:57.407Z,59.46
2023-03-05T11:31:10.261Z,59.65
2023-03-05T11:32:32.044Z,59.75
2023-03-05T11:33:40.409Z,59.63
2023-03-05T11:34:44.204Z,60.11
2023-03-05T11:35:48.437Z,59.95
2023-03-05T11:36:54.114Z,60.34
2023-03-05T11:38:05.952Z,61.51
2023-03-05T11:39:16.045Z,61.40
2023-03-05T11:40:25.412Z,61.23
2023-03-05T11:41:37.707Z,61.38
2023-03-05T11:42:42.303Z,61.27
2023-03-05T11:43:46.246Z,60.34
2023-03-05T11:44:53.442Z,59.95
2023-03-05T11:46:02.614Z,60.38
2023-03-05T11:47:20.880Z,61.22
2023-03-05T11:48:37.342Z,59.76
2023-03-05T11:49:46.208Z,60.08
2023-03-05T11:50:58.673Z,59.91
2023-03-05T11:52:13.229Z,59.18
2023-03-05T11:53:24.593Z,59.73
2023-03-05T11:54:37.541Z,59.97
2023-03-05T11:55:46.902Z,58.90
2023-03-05T11:56:53.393Z,58.80
2023-03-05T11:58:34.347Z,59.55
2023-03-05T11:59:43.680Z,59.37
2023-03-05T12:00:47.772Z,59.75
2023-03-05T12:01:53.889Z,59.51
2023-03-05T12:03:00.100Z,59.68
2023-03-05T12:04:06.748Z,59.61
2023-03-05T12:05:16.478Z,59.71
2023-03-05T12:06:43.674Z,58.64
2023-03-05T12:07:52.693Z,57.64
2023-03-05T12:09:03.248Z,57.73
2023-03-05T12:10:06.932Z,58.32
2023-03-05T12:11:22.002Z,58.59
2023-03-05T12:12:46.025Z,59.00
2023-03-05T12:13:57.388Z,59.24
2023-03-05T12:15:12.830Z,58.52
2023-03-05T12:16:40.409Z,58.40
2023-03-05T12:17:59.044Z,58.62
2023-03-05T12:19:31.203Z,57.82
2023-03-05T12:20:46.708Z,57.86
2023-03-05T12:21:53.272Z,58.73
2023-03-05T12:22:58.343Z,58.89
2023-03-05T12:24:05.239Z,58.65
2023-03-05T12:25:28.216Z,59.00
2023-03-05T12:26:53.663Z,58.11
2023-03-05T12:27:57.390Z,58.48
2023-03-05T12:29:01.535Z,58.00
2023-03-05T12:30:05.784Z,58.10
2023-03-05T12:31:08.671Z,56.79
2023-03-05T12:32:32.080Z,56.51
2023-03-05T12:33:43.452Z,56.51
2023-03-05T12:34:57.322Z,56.57
2023-03-05T12:36:21.550Z,55.96
2023-03-05T12:37:24.716Z,54.47
2023-03-05T12:38:33.322Z,54.75
2023-03-05T12:40:21.393Z,55.19
2023-03-05T12:41:27.445Z,55.67
2023-03-05T12:42:32.032Z,55.99
2023-03-05T12:43:36.618Z,56.08
2023-03-05T12:44:44.860Z,56.59
2023-03-05T12:45:48.351Z,55.75
2023-03-05T12:47:18.149Z,55.96
2023-03-05T12:48:21.229Z,55.76
2023-03-05T12:49:27.706Z,55.67
2023-03-05T12:50:30.900Z,55.69
2023-03-05T12:51:39.505Z,55.42
2023-03-05T12:52:46.825Z,54.68
2023-03-05T12:53:55.641Z,53.49
2023-03-05T12:55:13.116Z,53.63
2023-03-05T12:56:25.320Z,53.39
2023-03-05T12:57:31.950Z,53.46
2023-03-05T12:58:41.551Z,54.16
2023-03-05T12:59:54.304Z,53.61
2023-03-05T13:01:15.374Z,54.51
2023-03-05T13:02:38.459Z,53.37
2023-03-05T13:03:55.263Z,52.29
2023-03-05T13:05:03.980Z,51.73
2023-03-05T13:06:09.610Z,52.32
2023-03-05T13:07:17.188Z,52.77
2023-03-05T13:08:25.549Z,52.55
2023-03-05T13:09:34.555Z,52.09
2023-03-05T13:10:38.300Z,52.00
2023-03-05T13:11:45.669Z,52.00
2023-03-05T13:12:58.096Z,52.58
2023-03-05T13:14:03.645Z,52.95
2023-03-05T13:15:20.407Z,53.76
2023-03-05T13:16:29.614Z,53.79
2023-03-05T13:17:35.742Z,53.50
2023-03-05T13:18:41.494Z,52.66
2023-03-05T13:19:45.492Z,52.86
2023-03-05T13:20:52.964Z,53.19
2023-03-05T13:22:12.618Z,53.28
2023-03-05T13:23:28.107Z,53.31
2023-03-05T13:24:31.982Z,53.95
2023-03-05T13:25:35.239Z,53.78
2023-03-05T13:26:42.126Z,54.01
2023-03-05T13:27:47.234Z,53.90
2023-03-05T13:29:12.364Z,54.19
2023-03-05T13:30:26.276Z,53.95
2023-03-05T13:31:33.768Z,53.95
2023-03-05T13:32:37.953Z,53.95
2023-03-05T13:33:41.858Z,54.31
2023-03-05T13:34:48.188Z,54.18
2023-03-05T13:35:54.204Z,54.24
2023-03-05T13:37:01.838Z,54.11
2023-03-05T13:38:06.852Z,54.25
2023-03-05T13:39:30.500Z,54.50
2023-03-05T13:40:33.899Z,54.11
2023-03-05T13:41:37.997Z,53.83
2023-03-05T13:42:42.400Z,53.67
2023-03-05T13:43:49.383Z,54.02
2023-03-05T13:45:07.352Z,54.01
2023-03-05T13:46:11.017Z,54.23
2023-03-05T13:47:25.386Z,54.45
2023-03-05T13:48:29.184Z,54.78
2023-03-05T13:49:33.437Z,55.27
2023-03-05T13:50:39.788Z,54.60
2023-03-05T13:51:49.974Z,54.72
2023-03-05T13:52:54.375Z,55.16
2023-03-05T13:53:59.919Z,55.56
2023-03-05T13:55:12.889Z,55.38
2023-03-05T13:56:20.084Z,55.19
2023-03-05T13:57:54.047Z,55.21
2023-03-05T13:58:58.439Z,55.41
2023-03-05T14:00:02.282Z,55.61
2023-03-05T14:01:19.417Z,55.89
2023-03-05T14:02:24.551Z,56.19
2023-03-05T14:03:29.880Z,56.51
2023-03-05T14:04:38.224Z,56.88
2023-03-05T14:05:46.485Z,56.80
2023-03-05T14:07:11.413Z,56.72
2023-03-05T14:08:22.193Z,56.87
2023-03-05T14:09:29.109Z,56.85
2023-03-05T14:10:34.847Z,56.74
2023-03-05T14:11:38.148Z,56.82
2023-03-05T14:12:44.193Z,56.62
2023-03-05T14:13:49.822Z,56.65
2023-03-05T14:14:54.109Z,56.91
2023-03-05T14:16:10.155Z,57.48
2023-03-05T14:17:42.343Z,56.80